Time;durP1;ratioP1;P1;durP2;ratioP2;P2;SDS_P1;SDS_P2;PMS_P1;PMS_P2;Temp;Humidity;BMP_temperature;BMP_pressure;BME280_temperature;BME280_humidity;BME280_pressure;Samples;Min_cycle;Max_cycle;Signal;HPM_P1;HPM_P2
2021/04/13 00:01:16;;;;;;;26.55;18.77;;;11.60;76.20;;;;;;5014989;28;20054;-66
2021/04/13 00:03:44;;;;;;;24.15;19.65;;;11.60;76.10;;;;;;5010811;28;20120;-66
2021/04/13 00:06:13;;;;;;;27.38;18.85;;;11.50;76.50;;;;;;5018800;28;20033;-66
2021/04/13 00:08:40;;;;;;;23.75;18.08;;;11.40;76.70;;;;;;5018830;28;20026;-66
2021/04/13 00:11:09;;;;;;;27.17;19.40;;;11.40;76.90;;;;;;5013698;28;20029;-66
2021/04/13 00:13:37;;;;;;;28.83;20.50;;;11.30;77.20;;;;;;5013743;28;20041;-66
2021/04/13 00:16:17;;;;;;;23.25;19.40;;;11.30;77.60;;;;;;5006865;28;20506;-66
2021/04/13 00:18:45;;;;;;;26.80;20.27;;;11.30;77.60;;;;;;5007924;28;20040;-66
2021/04/13 00:21:21;;;;;;;27.17;19.80;;;11.40;77.80;;;;;;5018728;28;20060;-66
2021/04/13 00:23:46;;;;;;;29.33;19.20;;;11.40;78.10;;;;;;5014625;28;20026;-66
2021/04/13 00:26:22;;;;;;;26.77;19.52;;;11.40;77.90;;;;;;4997884;28;20033;-66
2021/04/13 00:28:50;;;;;;;24.88;19.00;;;11.40;77.50;;;;;;5015488;28;20018;-66
2021/04/13 00:31:41;;;;;;;24.38;18.23;;;11.40;77.90;;;;;;5015677;28;20080;-66
2021/04/13 00:34:08;;;;;;;25.83;19.08;;;11.40;78.10;;;;;;5013222;28;20018;-66
2021/04/13 00:36:34;;;;;;;23.45;19.25;;;11.30;77.90;;;;;;5010634;28;20128;-66
2021/04/13 00:39:33;;;;;;;29.42;20.55;;;11.30;78.40;;;;;;4998047;28;20041;-66
2021/04/13 00:42:03;;;;;;;26.33;18.77;;;11.30;78.60;;;;;;4999020;28;20130;-66
2021/04/13 00:44:34;;;;;;;23.92;18.88;;;11.30;78.60;;;;;;5014424;28;20033;-66
2021/04/13 00:47:08;;;;;;;26.80;19.05;;;11.30;78.60;;;;;;5013870;28;20076;-66
2021/04/13 00:49:37;;;;;;;27.40;20.02;;;11.30;78.80;;;;;;5010418;28;20026;-66
2021/04/13 00:52:08;;;;;;;23.70;19.13;;;11.30;78.80;;;;;;5015226;28;20029;-66
2021/04/13 00:54:41;;;;;;;27.95;20.98;;;11.30;79.00;;;;;;5015004;28;20030;-66
2021/04/13 00:57:14;;;;;;;29.88;20.15;;;11.30;79.20;;;;;;5015323;28;20022;-66
2021/04/13 00:59:41;;;;;;;26.15;20.17;;;11.30;79.00;;;;;;5017568;28;20030;-66
2021/04/13 01:02:13;;;;;;;26.92;19.60;;;11.30;79.00;;;;;;5014969;28;20057;-66
2021/04/13 01:04:52;;;;;;;24.80;19.20;;;11.40;79.20;;;;;;5014758;28;20428;-66
2021/04/13 01:07:31;;;;;;;25.58;19.63;;;11.40;79.10;;;;;;5015103;28;20367;-66
2021/04/13 01:10:07;;;;;;;30.13;21.20;;;11.40;79.10;;;;;;5003519;28;20061;-66
2021/04/13 01:12:37;;;;;;;31.48;21.15;;;11.40;79.20;;;;;;5014720;28;20057;-66
2021/04/13 01:15:04;;;;;;;31.63;22.15;;;11.40;79.40;;;;;;5014676;28;20080;-66
2021/04/13 01:17:30;;;;;;;29.48;20.45;;;11.40;79.50;;;;;;5014563;28;20103;-66
2021/04/13 01:20:12;;;;;;;29.30;21.98;;;11.40;79.60;;;;;;5013025;28;20041;-66
2021/04/13 01:22:53;;;;;;;28.52;21.67;;;11.40;79.10;;;;;;5014465;28;20022;-66
2021/04/13 01:25:24;;;;;;;27.42;20.80;;;11.50;79.30;;;;;;5006646;28;20030;-66
2021/04/13 01:27:57;;;;;;;27.50;21.40;;;11.50;79.20;;;;;;5011921;28;20034;-66
2021/04/13 01:30:33;;;;;;;29.38;21.55;;;11.50;79.40;;;;;;5013889;28;20022;-65
2021/04/13 01:36:21;;;;;;;29.58;21.27;;;11.60;79.10;;;;;;5014357;28;20116;-66
2021/04/13 01:39:03;;;;;;;29.15;20.90;;;11.60;79.20;;;;;;5016916;28;20030;-66
2021/04/13 01:41:57;;;;;;;31.50;21.40;;;11.70;79.20;;;;;;5014332;28;20037;-66
2021/04/13 01:44:38;;;;;;;32.30;20.23;;;11.70;79.00;;;;;;5011451;28;20034;-66
2021/04/13 01:47:06;;;;;;;30.15;21.67;;;11.70;78.90;;;;;;5010226;28;20385;-66
2021/04/13 01:49:47;;;;;;;31.02;23.10;;;11.70;79.00;;;;;;5011420;28;20034;-66
2021/04/13 01:52:23;;;;;;;29.63;22.15;;;11.70;79.10;;;;;;5010305;28;20520;-66
2021/04/13 01:54:49;;;;;;;30.88;22.63;;;11.70;79.00;;;;;;5006206;28;20022;-66
2021/04/13 01:57:22;;;;;;;32.28;23.63;;;11.70;78.90;;;;;;5013512;28;20101;-66
2021/04/13 01:59:55;;;;;;;27.80;20.98;;;11.70;79.00;;;;;;5009933;28;20018;-66
2021/04/13 02:02:29;;;;;;;27.08;21.15;;;11.70;78.90;;;;;;5013411;28;20038;-66
2021/04/13 02:05:03;;;;;;;28.33;22.00;;;11.70;78.80;;;;;;5014000;28;20034;-66
2021/04/13 02:10:28;;;;;;;26.55;20.95;;;11.60;78.90;;;;;;5007760;28;20095;-66
2021/04/13 02:13:05;;;;;;;30.42;22.13;;;11.60;78.80;;;;;;5009909;28;20033;-66
2021/04/13 02:15:49;;;;;;;31.48;23.90;;;11.60;79.00;;;;;;5003354;28;20461;-65
2021/04/13 02:18:38;;;;;;;32.15;22.50;;;11.50;79.10;;;;;;5002044;28;20084;-66
2021/04/13 02:21:13;;;;;;;31.42;23.05;;;11.50;79.20;;;;;;5013300;28;20026;-66
2021/04/13 02:23:48;;;;;;;29.83;20.67;;;11.50;79.50;;;;;;5013958;28;20351;-66
2021/04/13 02:26:14;;;;;;;32.65;23.42;;;11.50;79.70;;;;;;5010937;28;20109;-66
2021/04/13 02:28:42;;;;;;;32.05;23.60;;;11.40;79.70;;;;;;5013298;28;20030;-65
2021/04/13 02:31:10;;;;;;;28.98;22.42;;;11.40;79.80;;;;;;5012838;28;20504;-66
2021/04/13 02:33:42;;;;;;;33.17;22.45;;;11.40;79.90;;;;;;5013417;28;20469;-66
2021/04/13 02:36:29;;;;;;;34.97;22.77;;;11.40;80.00;;;;;;5018615;28;20045;-66
2021/04/13 02:38:56;;;;;;;36.55;25.17;;;11.30;79.90;;;;;;5013540;28;20377;-66
2021/04/13 02:41:28;;;;;;;31.15;24.80;;;11.30;80.20;;;;;;5013331;28;20018;-66
2021/04/13 02:43:56;;;;;;;31.10;21.88;;;11.40;80.70;;;;;;5013080;28;20120;-66
2021/04/13 02:46:27;;;;;;;35.58;24.83;;;11.40;80.20;;;;;;5012283;28;20500;-66
2021/04/13 02:49:14;;;;;;;34.47;22.15;;;11.40;80.20;;;;;;5013269;28;20025;-65
2021/04/13 02:51:50;;;;;;;30.58;23.10;;;11.40;80.00;;;;;;5012987;28;20021;-66
2021/04/13 02:54:22;;;;;;;31.40;22.23;;;11.40;80.30;;;;;;5013310;28;20045;-66
2021/04/13 02:56:51;;;;;;;30.58;21.20;;;11.40;80.40;;;;;;5011290;28;20054;-66
2021/04/13 02:59:16;;;;;;;32.63;23.75;;;11.40;81.10;;;;;;5013008;28;20041;-66
2021/04/13 03:01:57;;;;;;;32.60;22.13;;;11.40;80.60;;;;;;5012793;28;20428;-66
2021/04/13 03:04:23;;;;;;;33.78;22.92;;;11.40;80.70;;;;;;5013085;28;20034;-65
2021/04/13 03:06:52;;;;;;;33.33;21.52;;;11.40;80.80;;;;;;5012706;28;20482;-66
2021/04/13 03:09:20;;;;;;;26.40;21.05;;;11.30;80.80;;;;;;5013214;28;20136;-66
2021/04/13 03:11:53;;;;;;;28.85;22.60;;;11.30;80.80;;;;;;5013179;28;20397;-66
2021/04/13 03:14:21;;;;;;;31.15;23.13;;;11.30;81.20;;;;;;5012895;28;20018;-66
2021/04/13 03:16:50;;;;;;;25.70;20.75;;;11.20;81.50;;;;;;5012627;28;20030;-66
2021/04/13 03:19:19;;;;;;;29.77;23.00;;;11.20;81.50;;;;;;5012545;28;20026;-66
2021/04/13 03:21:51;;;;;;;35.20;24.75;;;11.20;81.70;;;;;;5009791;28;20141;-66
2021/04/13 03:24:28;;;;;;;35.08;24.10;;;11.20;82.00;;;;;;5006200;28;20076;-66
2021/04/13 03:27:03;;;;;;;32.22;25.05;;;11.20;82.20;;;;;;5000513;28;20513;-66
2021/04/13 03:29:51;;;;;;;32.85;23.20;;;11.30;82.30;;;;;;5011933;28;20343;-66
2021/04/13 03:32:21;;;;;;;32.58;23.27;;;11.30;82.20;;;;;;5012742;28;20030;-66
2021/04/13 03:34:47;;;;;;;31.08;22.10;;;11.30;82.20;;;;;;5012642;28;20343;-66
2021/04/13 03:37:14;;;;;;;30.35;22.25;;;11.20;82.10;;;;;;5012782;28;20038;-66
2021/04/13 03:39:43;;;;;;;26.02;20.50;;;11.20;82.30;;;;;;5012514;28;20014;-66
2021/04/13 03:42:25;;;;;;;26.65;20.02;;;11.10;82.50;;;;;;5011805;28;20449;-65
2021/04/13 03:44:52;;;;;;;27.92;20.98;;;11.10;82.60;;;;;;5011202;28;20060;-66
2021/04/13 03:47:21;;;;;;;28.92;21.27;;;11.00;82.80;;;;;;5006928;28;20053;-65
2021/04/13 03:49:48;;;;;;;29.70;21.33;;;11.00;83.20;;;;;;5003639;28;20116;-66
2021/04/13 03:52:24;;;;;;;28.40;21.10;;;11.00;83.40;;;;;;5007212;28;20080;-66
2021/04/13 03:54:50;;;;;;;25.55;18.92;;;11.00;83.60;;;;;;5007183;28;20026;-66
2021/04/13 03:57:32;;;;;;;26.40;19.63;;;10.90;83.50;;;;;;5014260;28;20018;-66
2021/04/13 03:59:59;;;;;;;26.52;19.67;;;10.90;83.80;;;;;;5015635;28;20014;-65
2021/04/13 04:02:25;;;;;;;26.42;20.13;;;10.90;83.80;;;;;;5015969;28;20034;-66
2021/04/13 04:05:17;;;;;;;27.90;20.92;;;10.90;84.00;;;;;;5015910;28;20022;-66
2021/04/13 04:07:52;;;;;;;25.33;18.42;;;10.90;84.00;;;;;;5016312;28;20034;-66
2021/04/13 04:10:50;;;;;;;31.20;20.33;;;10.90;84.10;;;;;;5015909;28;20028;-66
2021/04/13 04:13:15;;;;;;;29.92;19.85;;;10.90;84.30;;;;;;5014964;28;20022;-65
2021/04/13 04:15:49;;;;;;;28.48;18.48;;;10.90;84.60;;;;;;5005062;28;20030;-66
2021/04/13 04:18:35;;;;;;;34.00;21.30;;;10.80;84.60;;;;;;4992631;28;20031;-66
2021/04/13 04:21:17;;;;;;;31.75;18.55;;;10.80;84.70;;;;;;5010360;28;20042;-66
2021/04/13 04:23:43;;;;;;;31.13;22.10;;;10.80;84.90;;;;;;5006613;28;20045;-66
2021/04/13 04:26:10;;;;;;;30.95;21.35;;;10.80;85.10;;;;;;5005374;28;20040;-66
2021/04/13 04:28:41;;;;;;;32.47;20.65;;;10.80;85.40;;;;;;5015918;28;20382;-66
2021/04/13 04:31:35;;;;;;;32.80;22.95;;;10.90;85.30;;;;;;5015523;28;20029;-66
2021/04/13 04:34:15;;;;;;;32.00;21.05;;;10.90;85.30;;;;;;5004391;28;20022;-66
2021/04/13 04:36:49;;;;;;;30.05;20.85;;;10.90;85.80;;;;;;5016376;28;20029;-66
2021/04/13 04:39:27;;;;;;;30.80;21.00;;;10.90;85.30;;;;;;5011988;28;20026;-66
2021/04/13 04:41:55;;;;;;;30.15;20.27;;;11.00;85.40;;;;;;5012438;28;20026;-66
2021/04/13 04:44:26;;;;;;;35.10;22.02;;;11.00;85.20;;;;;;5011543;28;20022;-66
2021/04/13 04:46:59;;;;;;;36.45;21.88;;;11.00;85.20;;;;;;5015194;28;20026;-66
2021/04/13 04:49:47;;;;;;;33.13;20.42;;;11.00;85.20;;;;;;5014770;28;20026;-66
2021/04/13 04:52:13;;;;;;;33.72;20.40;;;11.00;85.40;;;;;;4998957;28;20335;-66
2021/04/13 04:54:38;;;;;;;43.33;23.52;;;10.90;85.20;;;;;;5009369;28;20105;-66
2021/04/13 04:57:05;;;;;;;41.45;23.05;;;10.90;85.60;;;;;;5008828;28;20104;-65
2021/04/13 04:59:31;;;;;;;35.88;22.70;;;10.90;85.60;;;;;;5003159;28;20048;-66
2021/04/13 05:01:56;;;;;;;38.85;21.95;;;10.90;85.70;;;;;;5006592;28;20046;-66
2021/04/13 05:04:22;;;;;;;33.65;21.88;;;11.00;85.80;;;;;;5003305;28;20040;-66
2021/04/13 05:06:48;;;;;;;33.75;20.75;;;11.00;85.60;;;;;;5011285;28;20057;-66
2021/04/13 05:09:13;;;;;;;34.05;22.08;;;10.90;85.50;;;;;;5013156;28;20354;-66
2021/04/13 05:11:39;;;;;;;35.72;21.80;;;11.00;85.80;;;;;;5013933;28;20037;-66
2021/04/13 05:14:05;;;;;;;35.10;20.52;;;11.00;85.60;;;;;;5013632;28;20036;-66
2021/04/13 05:16:30;;;;;;;33.28;20.95;;;10.90;85.40;;;;;;5013616;28;20034;-66
2021/04/13 05:18:56;;;;;;;35.42;23.77;;;10.90;85.70;;;;;;5014472;28;20048;-66
2021/04/13 05:21:22;;;;;;;36.67;21.77;;;10.90;85.90;;;;;;5013011;28;20921;-66
2021/04/13 05:23:48;;;;;;;34.08;22.35;;;10.90;85.90;;;;;;5014401;28;20425;-66
2021/04/13 05:26:14;;;;;;;36.53;21.95;;;11.00;86.10;;;;;;5014095;28;20028;-66
2021/04/13 05:28:39;;;;;;;36.33;23.63;;;11.00;86.20;;;;;;5013954;28;20065;-65
2021/04/13 05:31:06;;;;;;;33.58;21.75;;;11.10;86.20;;;;;;5014242;28;20500;-65
2021/04/13 05:33:32;;;;;;;36.70;23.65;;;11.10;86.00;;;;;;5014194;28;20024;-65
2021/04/13 05:36:01;;;;;;;39.30;23.92;;;11.10;86.10;;;;;;5014734;28;20037;-65
2021/04/13 05:38:37;;;;;;;31.52;21.58;;;11.10;86.20;;;;;;5014066;28;20029;-65
2021/04/13 05:41:08;;;;;;;36.28;21.88;;;11.20;86.10;;;;;;5004051;28;20041;-65
2021/04/13 05:43:37;;;;;;;32.65;20.25;;;11.20;86.00;;;;;;5014063;28;20041;-65
2021/04/13 05:46:04;;;;;;;34.38;22.20;;;11.20;86.00;;;;;;5003129;28;20041;-64
2021/04/13 05:48:30;;;;;;;34.10;22.23;;;11.20;85.90;;;;;;5010605;28;20062;-64
2021/04/13 05:50:56;;;;;;;36.60;20.88;;;11.20;86.10;;;;;;5011377;28;20080;-64
2021/04/13 05:53:22;;;;;;;32.90;21.38;;;11.20;86.10;;;;;;5014167;28;20147;-65
2021/04/13 05:55:49;;;;;;;36.55;24.42;;;11.20;86.10;;;;;;5011234;28;20137;-65
2021/04/13 05:58:18;;;;;;;33.70;22.63;;;11.20;86.30;;;;;;5012637;28;20045;-65
2021/04/13 06:00:49;;;;;;;35.08;22.40;;;11.20;86.10;;;;;;5010958;28;20421;-65
2021/04/13 06:03:18;;;;;;;36.33;23.42;;;11.30;86.10;;;;;;5005903;28;20065;-65
2021/04/13 06:05:44;;;;;;;38.92;22.52;;;11.30;86.10;;;;;;5008943;28;20031;-66
2021/04/13 06:08:11;;;;;;;28.42;19.63;;;11.30;86.20;;;;;;5009019;28;20467;-66
2021/04/13 06:10:37;;;;;;;34.53;21.83;;;11.30;86.20;;;;;;5008462;28;20030;-65
2021/04/13 06:13:04;;;;;;;33.60;21.05;;;11.30;86.20;;;;;;4996896;28;20030;-65
2021/04/13 06:15:32;;;;;;;33.58;21.35;;;11.30;86.10;;;;;;5005198;28;20026;-65
2021/04/13 06:17:58;;;;;;;32.33;20.73;;;11.40;86.20;;;;;;5004783;28;20061;-65
2021/04/13 06:20:25;;;;;;;33.15;21.13;;;11.40;86.20;;;;;;4996643;28;20704;-65
2021/04/13 06:22:52;;;;;;;35.53;22.27;;;11.40;86.30;;;;;;5002055;28;20022;-65
2021/04/13 06:25:27;;;;;;;30.75;20.75;;;11.40;86.30;;;;;;5003270;28;20467;-65
2021/04/13 06:27:53;;;;;;;29.83;19.35;;;11.50;85.90;;;;;;5000895;28;20350;-65
2021/04/13 06:30:21;;;;;;;32.30;20.75;;;11.40;85.30;;;;;;5006393;28;20110;-65
2021/04/13 06:32:48;;;;;;;33.22;19.35;;;11.40;85.50;;;;;;5002280;28;20104;-65
2021/04/13 06:35:14;;;;;;;29.10;19.35;;;11.40;85.60;;;;;;5006435;28;20156;-65
2021/04/13 06:37:43;;;;;;;34.10;22.20;;;11.30;85.80;;;;;;5007275;28;20033;-65
2021/04/13 06:40:15;;;;;;;35.75;22.65;;;11.30;86.20;;;;;;4999748;28;20440;-64
2021/04/13 06:43:29;;;;;;;29.02;18.33;;;11.30;86.30;;;;;;5006747;28;20040;-65
2021/04/13 06:46:20;;;;;;;26.40;16.45;;;11.40;86.20;;;;;;4962825;28;20428;-65
2021/04/13 06:49:14;;;;;;;28.45;19.55;;;11.40;85.90;;;;;;4934174;28;20061;-64
2021/04/13 06:52:08;;;;;;;30.88;19.83;;;11.40;85.90;;;;;;4993969;28;20034;-64
2021/04/13 06:54:40;;;;;;;28.70;18.80;;;11.40;85.90;;;;;;5001681;28;20030;-65
2021/04/13 06:57:12;;;;;;;32.25;19.77;;;11.40;86.00;;;;;;5000571;28;20095;-64
2021/04/13 06:59:41;;;;;;;31.25;19.00;;;11.40;86.10;;;;;;5004529;28;20045;-64
2021/04/13 07:02:21;;;;;;;26.55;18.40;;;11.40;86.00;;;;;;4999012;28;20051;-65
2021/04/13 07:05:11;;;;;;;31.67;20.35;;;11.50;86.00;;;;;;5004326;28;20049;-67
2021/04/13 07:07:53;;;;;;;28.00;17.48;;;11.50;85.90;;;;;;5002223;28;20022;-64
2021/04/13 07:10:40;;;;;;;31.52;19.58;;;11.60;85.70;;;;;;4994070;28;20109;-67
2021/04/13 07:13:18;;;;;;;28.48;18.02;;;11.60;85.70;;;;;;5002256;28;20026;-65
2021/04/13 07:15:51;;;;;;;26.50;16.83;;;11.60;85.70;;;;;;5000374;28;20189;-65
2021/04/13 07:18:31;;;;;;;28.73;18.45;;;11.60;85.70;;;;;;4992560;28;20400;-65
2021/04/13 07:21:16;;;;;;;26.27;17.67;;;11.70;85.70;;;;;;4991924;28;20026;-65
2021/04/13 07:23:45;;;;;;;26.77;18.23;;;11.80;85.50;;;;;;5001018;28;20056;-65
2021/04/13 07:26:13;;;;;;;27.92;18.20;;;11.90;85.40;;;;;;5002354;28;20089;-65
2021/04/13 07:29:15;;;;;;;31.60;20.00;;;11.90;85.20;;;;;;5000486;28;20026;-65
2021/04/13 07:32:00;;;;;;;26.23;17.58;;;11.90;85.00;;;;;;4988826;28;20026;-64
2021/04/13 07:34:27;;;;;;;32.05;18.67;;;12.00;84.80;;;;;;5002563;28;20026;-64
2021/04/13 07:37:01;;;;;;;25.40;18.23;;;12.00;84.70;;;;;;5004174;28;20038;-64
2021/04/13 07:39:28;;;;;;;25.50;18.85;;;12.00;84.40;;;;;;5009662;28;20390;-64
2021/04/13 07:42:07;;;;;;;25.58;18.70;;;12.00;84.50;;;;;;5004563;28;20037;-64
2021/04/13 07:44:49;;;;;;;29.27;19.23;;;12.10;84.50;;;;;;5006514;28;20038;-64
2021/04/13 07:47:23;;;;;;;25.48;17.65;;;12.00;84.30;;;;;;5008048;28;20374;-64
2021/04/13 07:49:56;;;;;;;30.05;18.35;;;12.10;84.30;;;;;;5004278;28;20102;-64
2021/04/13 07:52:54;;;;;;;25.58;17.45;;;12.10;84.10;;;;;;5006703;28;20099;-64
2021/04/13 07:55:54;;;;;;;23.17;16.90;;;12.10;83.60;;;;;;5002812;28;20037;-64
2021/04/13 07:58:26;;;;;;;27.77;18.35;;;12.10;83.60;;;;;;4997498;28;20402;-64
2021/04/13 08:00:52;;;;;;;27.10;18.63;;;12.00;83.50;;;;;;4995362;28;20035;-65
2021/04/13 08:03:31;;;;;;;28.95;19.45;;;12.00;83.90;;;;;;4975803;28;20038;-65
2021/04/13 08:06:00;;;;;;;30.33;19.00;;;12.00;83.90;;;;;;4990227;28;20416;-65
2021/04/13 08:08:30;;;;;;;27.20;18.70;;;12.00;83.90;;;;;;4980684;28;20486;-65
2021/04/13 08:11:25;;;;;;;29.50;19.88;;;12.00;84.10;;;;;;4988903;28;20033;-65
2021/04/13 08:13:53;;;;;;;29.05;19.33;;;12.10;84.00;;;;;;4971669;28;20093;-65
2021/04/13 08:16:28;;;;;;;29.48;19.02;;;12.20;84.00;;;;;;4982279;28;20055;-64
2021/04/13 08:19:13;;;;;;;26.60;18.23;;;12.30;84.00;;;;;;4985105;28;20378;-65
2021/04/13 08:21:39;;;;;;;28.27;18.55;;;12.40;83.20;;;;;;4985761;28;20037;-65
2021/04/13 08:24:05;;;;;;;28.33;18.27;;;12.40;83.00;;;;;;4980331;28;20022;-65
2021/04/13 08:26:31;;;;;;;30.40;19.02;;;12.40;82.70;;;;;;4986837;28;20124;-64
2021/04/13 08:29:35;;;;;;;30.63;19.77;;;12.30;82.50;;;;;;4963398;28;20149;-65
2021/04/13 08:32:57;;;;;;;25.70;16.88;;;12.30;82.20;;;;;;4986591;28;20037;-64
2021/04/13 08:35:36;;;;;;;27.33;18.52;;;12.10;82.40;;;;;;4982005;28;20026;-64
2021/04/13 08:38:28;;;;;;;36.78;20.17;;;12.10;82.60;;;;;;4984926;28;20042;-64
2021/04/13 08:41:22;;;;;;;27.85;19.83;;;12.00;82.90;;;;;;4985199;28;20410;-65
2021/04/13 08:43:59;;;;;;;26.42;17.42;;;11.90;83.20;;;;;;4986362;28;20034;-64
2021/04/13 08:46:35;;;;;;;32.88;18.83;;;11.90;83.50;;;;;;4983377;28;20038;-65
2021/04/13 08:49:30;;;;;;;26.00;17.83;;;11.90;83.60;;;;;;4982837;28;20482;-64
2021/04/13 08:52:17;;;;;;;22.75;16.50;;;11.90;83.60;;;;;;4978382;28;20739;-64
2021/04/13 08:54:47;;;;;;;29.77;19.63;;;11.90;83.60;;;;;;4984159;28;20113;-64
2021/04/13 08:57:19;;;;;;;29.27;18.88;;;11.90;83.70;;;;;;4982521;28;20107;-64
2021/04/13 08:59:52;;;;;;;24.67;17.75;;;12.00;83.80;;;;;;4986540;28;20427;-64
2021/04/13 09:02:33;;;;;;;26.83;17.73;;;12.00;83.60;;;;;;4994265;28;20170;-65
2021/04/13 09:05:31;;;;;;;26.23;17.63;;;12.10;83.40;;;;;;5001627;28;20087;-64
2021/04/13 09:08:22;;;;;;;22.98;16.63;;;12.10;83.30;;;;;;5000047;28;20033;-64
2021/04/13 09:11:03;;;;;;;24.58;17.23;;;12.10;82.80;;;;;;4991001;28;20026;-64
2021/04/13 09:13:36;;;;;;;26.65;16.92;;;12.10;83.00;;;;;;5001272;28;20030;-65
2021/04/13 09:16:03;;;;;;;30.90;18.65;;;12.00;82.70;;;;;;4998494;28;20402;-64
2021/04/13 09:18:37;;;;;;;24.33;16.50;;;12.00;82.80;;;;;;5001090;28;20053;-64
2021/04/13 09:21:24;;;;;;;22.73;16.80;;;11.90;83.00;;;;;;5002294;28;20034;-65
2021/04/13 09:24:11;;;;;;;26.83;18.73;;;11.90;83.00;;;;;;4998367;28;20628;-64
2021/04/13 09:26:58;;;;;;;30.42;19.02;;;11.90;83.20;;;;;;5005641;28;20040;-64
2021/04/13 09:29:50;;;;;;;30.58;19.40;;;11.90;83.40;;;;;;5000180;28;20382;-64
2021/04/13 09:32:25;;;;;;;23.65;16.58;;;11.90;83.30;;;;;;5001140;28;20018;-64
2021/04/13 09:35:03;;;;;;;29.60;19.00;;;11.90;83.00;;;;;;4999653;28;20034;-65
2021/04/13 09:37:54;;;;;;;31.20;19.25;;;11.90;83.00;;;;;;5000465;28;20041;-65
2021/04/13 09:40:25;;;;;;;25.40;17.00;;;11.90;83.10;;;;;;4999603;28;20057;-65
2021/04/13 09:43:09;;;;;;;27.30;18.48;;;11.80;83.00;;;;;;4998285;28;20057;-65
2021/04/13 09:45:49;;;;;;;26.52;17.85;;;11.80;83.20;;;;;;5001985;28;20484;-65
2021/04/13 09:48:52;;;;;;;27.83;18.23;;;11.80;83.40;;;;;;4996811;28;21131;-65
2021/04/13 09:52:02;;;;;;;30.30;19.25;;;11.70;83.40;;;;;;4998180;28;20565;-65
2021/04/13 09:54:37;;;;;;;28.92;19.73;;;11.70;83.60;;;;;;4997142;28;20026;-65
2021/04/13 09:57:15;;;;;;;32.08;20.52;;;11.70;83.60;;;;;;4992478;28;20065;-65
2021/04/13 09:59:59;;;;;;;29.20;19.63;;;11.70;84.00;;;;;;5000757;28;20025;-65
2021/04/13 10:03:01;;;;;;;28.70;19.10;;;11.80;84.10;;;;;;4996125;28;20038;-64
2021/04/13 10:05:30;;;;;;;28.50;18.13;;;11.80;83.90;;;;;;4993636;28;20038;-65
2021/04/13 10:08:07;;;;;;;27.70;18.55;;;11.90;83.90;;;;;;4994469;28;20137;-65
2021/04/13 10:10:38;;;;;;;28.15;18.98;;;11.90;83.70;;;;;;4993174;28;20037;-65
2021/04/13 10:13:28;;;;;;;25.80;18.10;;;11.90;83.60;;;;;;4995354;28;21279;-65
2021/04/13 10:16:21;;;;;;;26.35;18.90;;;11.90;83.40;;;;;;4984791;28;20044;-65
2021/04/13 10:19:28;;;;;;;28.20;19.08;;;11.80;83.20;;;;;;4996330;28;20030;-65
2021/04/13 10:22:45;;;;;;;31.15;18.67;;;11.80;83.50;;;;;;4997263;28;20056;-64
2021/04/13 10:25:26;;;;;;;28.65;18.45;;;11.80;83.50;;;;;;4952756;28;20397;-64
2021/04/13 10:28:10;;;;;;;24.73;17.30;;;11.80;83.60;;;;;;4998894;28;20040;-64
2021/04/13 10:31:00;;;;;;;27.45;19.58;;;11.80;83.90;;;;;;5000776;28;20120;-64
2021/04/13 10:33:41;;;;;;;28.63;20.05;;;11.80;83.90;;;;;;4997360;28;20026;-65
2021/04/13 10:36:40;;;;;;;26.95;20.38;;;11.90;84.10;;;;;;4987166;28;20400;-65
2021/04/13 10:39:45;;;;;;;31.23;19.77;;;11.90;83.80;;;;;;4998783;28;20041;-64
2021/04/13 10:42:52;;;;;;;29.20;20.30;;;11.90;83.60;;;;;;4954828;28;20523;-65
2021/04/13 10:45:46;;;;;;;29.55;21.08;;;11.90;83.40;;;;;;4986360;28;20084;-66
2021/04/13 10:48:41;;;;;;;33.33;22.05;;;11.80;83.30;;;;;;5001170;28;20655;-65
2021/04/13 10:51:39;;;;;;;27.73;19.90;;;11.80;83.50;;;;;;5003520;28;20036;-66
2021/04/13 10:54:46;;;;;;;26.17;19.00;;;11.80;83.60;;;;;;4968962;28;20041;-67
2021/04/13 10:57:15;;;;;;;27.67;20.40;;;11.80;83.40;;;;;;5000924;28;20032;-65
2021/04/13 10:59:52;;;;;;;28.38;21.13;;;11.80;83.60;;;;;;5001462;28;20030;-66
2021/04/13 11:02:42;;;;;;;30.90;20.77;;;11.80;83.50;;;;;;4995060;28;20053;-67
2021/04/13 11:05:40;;;;;;;29.75;20.50;;;11.80;83.70;;;;;;4997636;28;20029;-67
2021/04/13 11:08:25;;;;;;;28.88;19.42;;;11.80;83.50;;;;;;4990971;28;20049;-66
2021/04/13 11:11:15;;;;;;;28.60;19.95;;;11.80;83.60;;;;;;5002869;28;20065;-66
2021/04/13 11:14:18;;;;;;;27.70;19.05;;;11.80;83.60;;;;;;5002631;28;20120;-66
2021/04/13 11:17:05;;;;;;;27.23;19.52;;;11.80;83.50;;;;;;5001806;28;20034;-66
2021/04/13 11:19:49;;;;;;;29.00;19.67;;;11.70;83.50;;;;;;4995108;28;20049;-66
2021/04/13 11:22:52;;;;;;;27.05;19.15;;;11.70;83.70;;;;;;5003424;28;20382;-66
2021/04/13 11:25:26;;;;;;;29.70;19.77;;;11.70;83.60;;;;;;5000395;28;20048;-66
2021/04/13 11:28:21;;;;;;;30.38;20.45;;;11.70;83.50;;;;;;4999605;28;20892;-66
2021/04/13 11:30:59;;;;;;;32.50;22.38;;;11.70;83.50;;;;;;4993933;28;20108;-66
2021/04/13 11:33:46;;;;;;;27.98;20.85;;;11.70;83.50;;;;;;4999098;28;20026;-66
2021/04/13 11:36:26;;;;;;;28.77;19.63;;;11.70;83.60;;;;;;4999697;28;20038;-66
2021/04/13 11:39:10;;;;;;;30.52;21.55;;;11.60;83.60;;;;;;4998129;28;20025;-66
2021/04/13 11:42:14;;;;;;;30.48;20.48;;;11.60;83.70;;;;;;4995238;28;20060;-66
2021/04/13 11:44:58;;;;;;;28.75;19.75;;;11.60;83.90;;;;;;4986502;28;20044;-66
2021/04/13 11:47:55;;;;;;;32.40;21.63;;;11.50;83.80;;;;;;4995246;28;20026;-66
2021/04/13 11:50:59;;;;;;;32.10;20.10;;;11.50;84.10;;;;;;4998924;28;20096;-66
2021/04/13 11:53:39;;;;;;;29.92;20.63;;;11.50;84.10;;;;;;4990864;28;20071;-66
2021/04/13 11:56:23;;;;;;;27.45;19.70;;;11.50;84.20;;;;;;4999441;28;20543;-66
2021/04/13 11:59:17;;;;;;;33.67;20.42;;;11.50;84.20;;;;;;5000780;28;20125;-66
2021/04/13 12:01:44;;;;;;;28.17;19.75;;;11.50;84.30;;;;;;4996093;28;21802;-66
2021/04/13 12:04:32;;;;;;;27.15;19.38;;;11.50;84.50;;;;;;4997511;28;20058;-66
2021/04/13 12:07:06;;;;;;;23.92;19.15;;;11.60;84.60;;;;;;4982403;28;20066;-66
2021/04/13 12:09:47;;;;;;;26.00;19.10;;;11.60;84.60;;;;;;4996082;28;20036;-66
2021/04/13 12:12:34;;;;;;;29.33;19.92;;;11.70;84.40;;;;;;5000534;28;20038;-66
2021/04/13 12:15:02;;;;;;;30.83;20.60;;;11.70;85.00;;;;;;4995775;28;20087;-66
2021/04/13 12:17:44;;;;;;;27.20;20.17;;;11.70;84.20;;;;;;4998890;28;20030;-66
2021/04/13 12:20:40;;;;;;;31.20;22.10;;;11.80;84.10;;;;;;5000671;28;20160;-66
2021/04/13 12:23:05;;;;;;;27.17;19.13;;;11.80;84.00;;;;;;4999721;28;20037;-66
2021/04/13 12:25:43;;;;;;;28.88;20.90;;;11.80;84.10;;;;;;5002377;28;20038;-66
2021/04/13 12:28:17;;;;;;;29.48;20.80;;;11.90;84.00;;;;;;4997180;28;20030;-66
2021/04/13 12:30:43;;;;;;;32.72;22.08;;;11.90;84.00;;;;;;4999689;28;20491;-66
2021/04/13 12:33:25;;;;;;;35.50;23.30;;;12.00;84.00;;;;;;4994085;28;20037;-66
2021/04/13 12:35:54;;;;;;;34.53;20.30;;;12.00;83.80;;;;;;5000807;28;20030;-66
2021/04/13 12:38:41;;;;;;;32.63;22.13;;;12.10;83.70;;;;;;4996264;28;20037;-66
2021/04/13 12:41:25;;;;;;;32.40;22.55;;;12.20;83.80;;;;;;5000261;28;20034;-66
2021/04/13 12:44:00;;;;;;;27.95;20.30;;;12.20;83.70;;;;;;5000579;28;20038;-66
2021/04/13 12:46:31;;;;;;;28.65;21.15;;;12.30;83.80;;;;;;5001780;28;20882;-66
2021/04/13 12:49:01;;;;;;;27.25;20.60;;;12.30;83.40;;;;;;5001682;28;20022;-66
2021/04/13 12:51:34;;;;;;;29.33;19.95;;;12.30;83.50;;;;;;4998735;28;20025;-66
2021/04/13 12:54:15;;;;;;;30.83;19.48;;;12.40;83.40;;;;;;5003961;28;20034;-67
2021/04/13 12:56:49;;;;;;;31.40;20.65;;;12.40;83.20;;;;;;4998472;28;20386;-65
2021/04/13 12:59:18;;;;;;;28.73;20.42;;;12.50;83.20;;;;;;5001799;28;20506;-66
2021/04/13 13:01:46;;;;;;;28.83;19.70;;;12.60;83.30;;;;;;4995642;28;20061;-66
2021/04/13 13:04:22;;;;;;;26.10;17.45;;;12.70;83.10;;;;;;4995199;28;20512;-66
2021/04/13 13:06:58;;;;;;;26.83;19.75;;;12.80;82.70;;;;;;4996843;28;20038;-66
2021/04/13 13:09:30;;;;;;;25.60;18.58;;;12.90;82.50;;;;;;4990512;28;20659;-67
2021/04/13 13:12:06;;;;;;;;;;;13.00;82.20;;;;;;4999061;28;20382;-66
2021/04/13 13:14:35;;;;;;;26.25;18.60;;;13.00;82.10;;;;;;4998729;28;19933;-66
2021/04/13 13:17:01;;;;;;;29.48;20.42;;;13.10;81.70;;;;;;4998028;28;20042;-66
2021/04/13 13:19:43;;;;;;;28.05;18.95;;;13.20;81.50;;;;;;5000927;28;20175;-66
2021/04/13 13:22:17;;;;;;;26.67;18.15;;;13.30;81.40;;;;;;4998570;28;20041;-66
2021/04/13 13:24:45;;;;;;;24.35;17.75;;;13.30;80.40;;;;;;4992586;28;20128;-66